createdAt,value
2022-08-18T00:01:47.820Z,24
2022-08-18T00:04:53.227Z,24
2022-08-18T00:07:28.880Z,23.9
2022-08-18T00:10:01.570Z,23.9
2022-08-18T00:12:35.108Z,23.8
2022-08-18T00:15:09.934Z,23.8
2022-08-18T00:17:42.554Z,23.8
2022-08-18T00:20:16.581Z,23.8
2022-08-18T00:22:49.752Z,23.8
2022-08-18T00:25:22.785Z,23.9
2022-08-18T00:27:55.097Z,23.8
2022-08-18T00:30:27.820Z,23.8
2022-08-18T00:33:00.793Z,23.8
2022-08-18T00:35:34.078Z,23.7
2022-08-18T00:38:07.782Z,23.7
2022-08-18T00:40:56.185Z,23.6
2022-08-18T00:43:29.246Z,23.6
2022-08-18T00:46:03.453Z,23.6
2022-08-18T00:48:36.510Z,23.5
2022-08-18T00:51:09.606Z,23.4
2022-08-18T00:53:43.254Z,23.4
2022-08-18T00:56:16.027Z,23.3
2022-08-18T00:58:49.165Z,23.3
2022-08-18T01:01:21.993Z,23.3
2022-08-18T01:03:55.259Z,23.3
2022-08-18T01:06:28.821Z,23.3
2022-08-18T01:09:02.842Z,23.2
2022-08-18T01:11:35.873Z,23.2
2022-08-18T01:14:08.942Z,23.1
2022-08-18T01:16:58.980Z,23
2022-08-18T01:19:30.037Z,23.1
2022-08-18T01:22:03.271Z,23.1
2022-08-18T01:24:36.641Z,23.1
2022-08-18T01:27:09.431Z,23.2
2022-08-18T01:29:44.381Z,23.1
2022-08-18T01:32:16.733Z,23.1
2022-08-18T01:34:50.108Z,23.1
2022-08-18T01:37:23.024Z,23.1
2022-08-18T01:41:32.128Z,23.1
2022-08-18T01:44:03.917Z,23.1
2022-08-18T01:46:36.409Z,23.1
2022-08-18T01:49:09.761Z,23.1
2022-08-18T01:51:43.200Z,23.1
2022-08-18T01:54:16.700Z,23
2022-08-18T01:56:50.310Z,23
2022-08-18T01:59:24.195Z,22.9
2022-08-18T02:01:58.162Z,22.9
2022-08-18T02:04:38.516Z,22.9
2022-08-18T02:07:10.694Z,22.9
2022-08-18T02:09:46.030Z,22.9
2022-08-18T02:12:23.032Z,22.9
2022-08-18T02:14:55.822Z,22.8
2022-08-18T02:17:29.276Z,22.9
2022-08-18T02:20:04.586Z,22.9
2022-08-18T02:22:37.086Z,22.8
2022-08-18T02:25:10.331Z,22.9
2022-08-18T02:27:43.666Z,22.8
2022-08-18T02:30:16.346Z,22.9
2022-08-18T02:32:49.855Z,22.9
2022-08-18T02:35:22.941Z,22.9
2022-08-18T02:37:55.922Z,22.9
2022-08-18T02:40:29.374Z,22.8
2022-08-18T02:43:01.532Z,22.8
2022-08-18T02:45:34.651Z,22.7
2022-08-18T02:48:07.682Z,22.7
2022-08-18T02:50:40.699Z,22.6
2022-08-18T02:53:13.990Z,22.6
2022-08-18T02:55:46.588Z,22.5
2022-08-18T02:58:19.930Z,22.5
2022-08-18T03:00:53.382Z,22.5
2022-08-18T03:03:25.906Z,22.5
2022-08-18T03:05:58.600Z,22.5
2022-08-18T03:08:32.153Z,22.5
2022-08-18T03:11:08.036Z,22.5
2022-08-18T03:13:42.328Z,22.4
2022-08-18T03:16:15.709Z,22.4
2022-08-18T03:18:48.243Z,22.4
2022-08-18T03:21:21.967Z,22.4
2022-08-18T03:24:10.797Z,22.4
2022-08-18T03:26:41.932Z,22.4
2022-08-18T03:29:15.459Z,22.4
2022-08-18T03:31:48.990Z,22.4
2022-08-18T03:34:21.663Z,22.4
2022-08-18T03:36:54.503Z,22.3
2022-08-18T03:39:28.222Z,22.3
2022-08-18T03:42:03.311Z,22.3
2022-08-18T03:44:35.954Z,22.2
2022-08-18T03:47:09.167Z,22.2
2022-08-18T03:49:42.747Z,22.1
2022-08-18T03:52:16.062Z,22.1
2022-08-18T03:54:49.445Z,22.1
2022-08-18T03:57:22.320Z,22
2022-08-18T03:59:55.013Z,22
2022-08-18T04:02:27.770Z,22.1
2022-08-18T04:05:00.602Z,22.1
2022-08-18T04:07:33.911Z,22.2
2022-08-18T04:10:20.645Z,22.2
2022-08-18T04:12:52.196Z,22.3
2022-08-18T04:15:25.007Z,22.4
2022-08-18T04:18:05.981Z,22.5
2022-08-18T04:21:00.626Z,22.6
2022-08-18T04:23:45.398Z,22.8
2022-08-18T04:26:20.894Z,22.9
2022-08-18T04:28:53.305Z,23
2022-08-18T04:31:26.711Z,23
2022-08-18T04:34:00.004Z,23.1
2022-08-18T04:36:33.123Z,23.2
2022-08-18T04:39:06.340Z,23.2
2022-08-18T04:41:39.026Z,23.4
2022-08-18T04:44:12.664Z,23.4
2022-08-18T04:46:45.639Z,23.5
2022-08-18T04:49:19.021Z,23.5
2022-08-18T04:52:42.574Z,23.7
2022-08-18T04:55:13.967Z,23.9
2022-08-18T04:57:47.324Z,23.9
2022-08-18T05:00:20.275Z,24
2022-08-18T05:02:51.749Z,24
2022-08-18T05:05:25.227Z,24
2022-08-18T05:07:58.317Z,24
2022-08-18T05:10:31.079Z,24.1
2022-08-18T05:13:04.805Z,24.1
2022-08-18T05:16:27.340Z,24.2
2022-08-18T05:18:59.239Z,24.5
2022-08-18T05:21:39.779Z,24.6
2022-08-18T05:24:12.752Z,24.8
2022-08-18T05:26:45.209Z,24.8
2022-08-18T05:29:21.129Z,24.9
2022-08-18T05:31:52.497Z,24.9
2022-08-18T05:34:25.448Z,25
2022-08-18T05:36:58.975Z,25.1
2022-08-18T05:39:33.007Z,25.2
2022-08-18T05:42:05.951Z,25.4
2022-08-18T05:44:39.083Z,25.5
2022-08-18T05:47:12.351Z,25.6
2022-08-18T05:49:44.665Z,25.8
2022-08-18T05:52:17.427Z,25.9
2022-08-18T05:54:52.468Z,26.1
2022-08-18T05:57:24.620Z,26.3
2022-08-18T05:59:58.423Z,26.3
2022-08-18T06:02:31.164Z,26.4
2022-08-18T06:05:04.208Z,26.6
2022-08-18T06:07:37.289Z,26.8
2022-08-18T06:10:10.196Z,26.8
2022-08-18T06:12:47.836Z,26.9
2022-08-18T06:15:19.488Z,27
2022-08-18T06:17:53.382Z,27.2
2022-08-18T06:20:25.689Z,27.3
2022-08-18T06:22:58.505Z,27.5
2022-08-18T06:25:32.329Z,27.6
2022-08-18T06:28:05.489Z,27.7
2022-08-18T06:30:39.007Z,27.9
2022-08-18T06:33:12.329Z,28
2022-08-18T06:35:49.091Z,28
2022-08-18T06:38:21.787Z,28.1
2022-08-18T06:40:54.461Z,28.2
2022-08-18T06:43:27.727Z,28.4
2022-08-18T06:46:01.368Z,28.5
2022-08-18T06:48:34.304Z,28.6
2022-08-18T06:51:07.944Z,28.9
2022-08-18T06:53:40.666Z,28.9
2022-08-18T06:56:27.459Z,29
2022-08-18T06:58:58.495Z,29.3
2022-08-18T07:01:32.055Z,29.3
2022-08-18T07:04:04.679Z,29.6
2022-08-18T07:06:41.599Z,29.7
2022-08-18T07:09:13.563Z,29.9
2022-08-18T07:11:46.774Z,30
2022-08-18T07:14:19.757Z,30.2
2022-08-18T07:17:00.712Z,30.3
2022-08-18T07:19:32.131Z,30.5
2022-08-18T07:22:05.203Z,30.5
2022-08-18T07:24:37.963Z,30.6
2022-08-18T07:27:15.161Z,30.7
2022-08-18T07:29:50.287Z,30.9
2022-08-18T07:32:23.050Z,31.1
2022-08-18T07:34:56.697Z,31.2
2022-08-18T07:37:30.312Z,31.3
2022-08-18T07:40:02.705Z,31.5
2022-08-18T07:43:03.102Z,31.7
2022-08-18T07:45:34.305Z,31.9
2022-08-18T07:48:40.726Z,32
2022-08-18T07:51:18.054Z,32.2
2022-08-18T07:53:57.563Z,32
2022-08-18T07:56:28.986Z,32.1
2022-08-18T07:59:01.845Z,32.2
2022-08-18T08:01:35.583Z,32.3
2022-08-18T08:04:26.999Z,32.4
2022-08-18T08:07:26.501Z,32.5
2022-08-18T08:10:00.365Z,32.6
2022-08-18T08:12:32.538Z,32.8
2022-08-18T08:15:05.458Z,32.8
2022-08-18T08:17:37.933Z,32.7
2022-08-18T08:20:11.079Z,32.8
2022-08-18T08:22:43.631Z,32.7
2022-08-18T08:25:48.179Z,32.8
2022-08-18T08:28:21.368Z,33
2022-08-18T08:30:55.655Z,33
2022-08-18T08:33:44.727Z,33.2
2022-08-18T08:36:17.547Z,33.3
2022-08-18T08:38:50.248Z,33.3
2022-08-18T08:41:23.058Z,33.4
2022-08-18T08:43:56.406Z,33.5
2022-08-18T08:46:29.674Z,33.6
2022-08-18T08:49:02.666Z,33.6
2022-08-18T08:51:36.949Z,33.6
2022-08-18T08:54:08.586Z,33.7
2022-08-18T08:56:42.212Z,33.7
2022-08-18T08:59:15.484Z,33.8
2022-08-18T09:01:47.925Z,33.8
2022-08-18T09:04:20.529Z,34
2022-08-18T09:06:57.114Z,34.1
2022-08-18T09:09:30.068Z,34
2022-08-18T09:12:03.569Z,34
2022-08-18T09:14:36.313Z,34.2
2022-08-18T09:17:09.954Z,34.4
2022-08-18T09:19:43.190Z,34.5
2022-08-18T09:22:15.710Z,34.6
2022-08-18T09:24:52.730Z,34.7
2022-08-18T09:27:24.743Z,34.8
2022-08-18T09:29:58.044Z,35
2022-08-18T09:32:32.048Z,35.1
2022-08-18T09:35:06.800Z,35
2022-08-18T09:37:45.546Z,35
2022-08-18T09:41:04.025Z,35.3
2022-08-18T09:50:39.200Z,35.3
2022-08-18T09:53:09.198Z,35
2022-08-18T09:55:52.785Z,35
2022-08-18T09:58:34.730Z,35.1
2022-08-18T10:01:07.840Z,35.1
2022-08-18T10:03:42.117Z,35.2
2022-08-18T10:06:14.959Z,35.5
2022-08-18T10:08:47.850Z,35.5
2022-08-18T10:11:21.173Z,35.5
2022-08-18T10:13:54.195Z,35.6
2022-08-18T10:17:15.623Z,35.4
2022-08-18T10:19:57.243Z,35.4
2022-08-18T10:22:36.761Z,35.5
2022-08-18T10:25:25.233Z,35.3
2022-08-18T10:27:56.784Z,35.3
2022-08-18T10:31:10.518Z,35.3
2022-08-18T10:33:43.731Z,35.3
2022-08-18T10:36:18.959Z,35.5
2022-08-18T10:38:51.323Z,35.6
2022-08-18T10:41:24.140Z,35.6
2022-08-18T10:43:59.318Z,35.7
2022-08-18T10:46:46.546Z,35.7
2022-08-18T10:49:24.202Z,35.9
2022-08-18T10:52:03.298Z,36
2022-08-18T12:55:23.214Z,37.2
2022-08-18T12:57:57.295Z,37.4
2022-08-18T13:00:29.982Z,37.5
2022-08-18T13:03:02.645Z,37.3
2022-08-18T13:05:38.083Z,37.4
2022-08-18T13:08:47.994Z,37.4
2022-08-18T13:11:27.964Z,37.4
2022-08-18T13:14:09.378Z,37.5
2022-08-18T13:16:55.684Z,37.5
2022-08-18T13:19:36.132Z,37.5
2022-08-18T13:22:07.678Z,37.6
2022-08-18T13:24:45.399Z,37.5
2022-08-18T13:27:24.448Z,37.4
2022-08-18T13:29:56.121Z,37.2
2022-08-18T13:33:56.465Z,37
2022-08-18T13:36:38.823Z,36.9
2022-08-18T13:39:15.442Z,36.8
2022-08-18T18:05:53.752Z,31.3
2022-08-18T18:08:24.286Z,31
2022-08-18T18:11:06.322Z,30.8
2022-08-18T18:13:38.844Z,30.6
2022-08-18T18:16:11.141Z,30.5
2022-08-18T18:18:42.611Z,30.4
2022-08-18T18:21:15.330Z,30.3
2022-08-18T18:23:47.840Z,30.2
2022-08-18T18:26:22.070Z,30.2
2022-08-18T18:28:54.957Z,30.1
2022-08-18T18:31:28.736Z,30
2022-08-18T18:34:01.673Z,30
2022-08-18T18:36:38.242Z,29.9
2022-08-18T18:39:13.697Z,29.8
2022-08-18T18:41:46.868Z,29.7
2022-08-18T18:44:20.411Z,29.6
2022-08-18T18:47:02.757Z,29.5
2022-08-18T18:49:34.232Z,29.4
2022-08-18T18:52:13.249Z,29.3
2022-08-18T18:54:51.208Z,29.2
2022-08-18T18:57:32.452Z,29.1
2022-08-18T19:00:05.270Z,29
2022-08-18T19:02:36.903Z,29
2022-08-18T19:05:10.245Z,28.9
2022-08-18T19:07:43.120Z,28.8
2022-08-18T19:10:33.032Z,28.8
2022-08-18T19:13:36.966Z,28.7
2022-08-18T19:16:06.993Z,28.8
2022-08-18T19:19:48.848Z,28.7
2022-08-18T19:22:20.521Z,28.6
2022-08-18T19:24:54.205Z,28.5
2022-08-18T19:27:26.874Z,28.4
2022-08-18T19:29:58.862Z,28.4
2022-08-18T19:32:38.192Z,28.3
2022-08-18T19:35:13.934Z,28.2
2022-08-18T19:37:51.065Z,28.2
2022-08-18T19:40:26.626Z,28.1
2022-08-18T19:42:59.982Z,28.1
2022-08-18T19:45:33.315Z,28
2022-08-18T19:48:06.387Z,28.1
2022-08-18T19:50:39.700Z,28
2022-08-18T19:53:17.248Z,27.9
